createdAt,value
2018-04-26T04:01:46.216Z,14.60
2018-04-26T04:04:26.524Z,14.60
2018-04-26T04:06:55.275Z,14.60
2018-04-26T04:09:24.060Z,14.60
2018-04-26T04:11:52.567Z,14.70
2018-04-26T04:14:21.060Z,14.60
2018-04-26T04:16:49.808Z,14.60
2018-04-26T04:19:18.516Z,14.70
2018-04-26T04:21:46.993Z,14.80
2018-04-26T04:24:15.809Z,14.70
2018-04-26T04:26:44.469Z,14.60
2018-04-26T04:29:12.972Z,14.60
2018-04-26T04:31:41.696Z,14.60
2018-04-26T04:34:11.408Z,14.80
2018-04-26T04:36:41.266Z,14.80
2018-04-26T04:39:09.738Z,14.80
2018-04-26T04:41:38.953Z,14.80
2018-04-26T04:44:07.887Z,14.90
2018-04-26T04:46:36.368Z,14.90
2018-04-26T04:49:04.872Z,14.90
2018-04-26T04:51:34.345Z,14.70
2018-04-26T04:54:02.811Z,14.70
2018-04-26T04:56:31.340Z,14.70
2018-04-26T04:59:00.024Z,14.60
2018-04-26T05:01:29.292Z,14.70
2018-04-26T05:03:57.848Z,14.70
2018-04-26T05:06:26.362Z,14.70
2018-04-26T05:08:54.844Z,14.80
2018-04-26T05:11:23.888Z,15.00
2018-04-26T05:13:52.504Z,15.20
2018-04-26T05:16:21.550Z,15.40
2018-04-26T05:18:50.380Z,15.60
2018-04-26T05:21:19.214Z,15.60
2018-04-26T05:23:48.040Z,15.80
2018-04-26T05:26:17.884Z,16.40
2018-04-26T05:28:46.748Z,16.30
2018-04-26T05:31:15.624Z,16.70
2018-04-26T05:33:45.485Z,17.40
2018-04-26T05:36:14.421Z,17.40
2018-04-26T05:38:44.036Z,17.60
2018-04-26T05:41:13.872Z,17.70
2018-04-26T05:43:42.557Z,17.60
2018-04-26T05:46:11.503Z,17.70
2018-04-26T05:48:40.321Z,17.90
2018-04-26T05:51:10.179Z,18.10
2018-04-26T05:53:38.676Z,18.10
2018-04-26T05:56:07.182Z,18.40
2018-04-26T05:58:35.831Z,18.40
2018-04-26T06:01:04.690Z,18.40
2018-04-26T06:03:34.372Z,18.20
2018-04-26T06:06:03.049Z,18.10
2018-04-26T06:08:31.779Z,17.90
2018-04-26T06:11:01.034Z,17.60
2018-04-26T06:13:29.877Z,17.60
2018-04-26T06:15:58.652Z,17.50
2018-04-26T06:18:28.169Z,17.50
2018-04-26T06:20:57.439Z,17.40
2018-04-26T06:23:25.954Z,17.40
2018-04-26T06:25:55.487Z,17.80
2018-04-26T06:28:23.989Z,17.80
2018-04-26T06:30:52.654Z,18.10
2018-04-26T06:33:21.212Z,18.40
2018-04-26T06:35:49.547Z,18.30
2018-04-26T06:38:18.079Z,18.50
2018-04-26T06:40:46.600Z,18.70
2018-04-26T06:43:15.081Z,18.80
2018-04-26T06:45:44.456Z,18.70
2018-04-26T06:48:13.187Z,18.70
2018-04-26T06:50:41.713Z,18.50
2018-04-26T06:53:10.220Z,18.40
2018-04-26T06:55:38.700Z,18.10
2018-04-26T06:58:07.481Z,18.20
2018-04-26T07:00:36.098Z,18.20
2018-04-26T07:03:05.268Z,18.10
2018-04-26T07:05:34.083Z,18.10
2018-04-26T07:08:02.838Z,18.10
2018-04-26T07:10:31.576Z,18.20
2018-04-26T07:13:00.065Z,18.20
2018-04-26T07:15:28.555Z,17.90
2018-04-26T07:17:57.082Z,17.90
2018-04-26T07:20:25.629Z,17.90
2018-04-26T07:22:54.140Z,17.70
2018-04-26T07:25:22.685Z,17.60
2018-04-26T07:27:51.194Z,17.50
2018-04-26T07:30:20.012Z,17.50
2018-04-26T07:32:48.539Z,17.40
2018-04-26T07:35:17.049Z,17.40
2018-04-26T07:37:46.294Z,17.40
2018-04-26T07:40:14.845Z,17.30
2018-04-26T07:42:44.084Z,17.50
2018-04-26T07:45:13.340Z,17.50
2018-04-26T07:47:42.443Z,17.50
2018-04-26T07:50:11.574Z,17.60
2018-04-26T07:52:40.123Z,17.60
2018-04-26T07:55:08.650Z,17.60
2018-04-26T07:57:37.325Z,17.60
2018-04-26T08:00:05.849Z,17.70
2018-04-26T08:02:35.139Z,17.80
2018-04-26T08:05:03.553Z,17.80
2018-04-26T08:07:33.335Z,17.90
2018-04-26T08:10:02.179Z,17.80
2018-04-26T08:12:30.989Z,17.90
2018-04-26T08:14:59.803Z,17.90
2018-04-26T08:17:29.943Z,17.70
2018-04-26T08:19:58.425Z,17.90
2018-04-26T08:22:27.724Z,18.10
2018-04-26T08:24:56.274Z,18.10
2018-04-26T08:27:24.883Z,18.40
2018-04-26T08:29:53.400Z,18.60
2018-04-26T08:32:22.010Z,18.90
2018-04-26T08:34:50.549Z,19.30
2018-04-26T08:37:19.799Z,20.00
2018-04-26T08:39:48.325Z,20.00
2018-04-26T08:42:16.932Z,20.30
2018-04-26T08:44:46.215Z,20.50
2018-04-26T08:47:14.704Z,20.50
2018-04-26T08:49:44.320Z,20.10
2018-04-26T08:52:13.237Z,20.10
2018-04-26T08:54:42.121Z,19.90
2018-04-26T08:57:11.062Z,20.00
2018-04-26T08:59:39.697Z,19.70
2018-04-26T09:02:08.335Z,19.70
2018-04-26T09:04:36.832Z,19.50
2018-04-26T09:07:05.353Z,19.40
2018-04-26T09:09:34.948Z,19.10
2018-04-26T09:12:03.723Z,19.00
2018-04-26T09:14:32.522Z,19.00
2018-04-26T09:17:01.289Z,18.80
2018-04-26T09:19:29.821Z,18.70
2018-04-26T09:21:58.447Z,18.60
2018-04-26T09:24:27.071Z,18.60
2018-04-26T09:26:55.601Z,18.40
2018-04-26T09:29:24.158Z,18.40
2018-04-26T09:31:52.688Z,18.30
2018-04-26T09:34:21.489Z,18.30
2018-04-26T09:36:50.036Z,18.20
2018-04-26T09:39:18.493Z,18.10
2018-04-26T09:41:47.040Z,18.00
2018-04-26T09:44:15.620Z,17.80
2018-04-26T09:46:44.170Z,17.70
2018-04-26T09:49:12.664Z,17.70
2018-04-26T09:51:41.173Z,17.50
2018-04-26T09:54:09.714Z,17.50
2018-04-26T09:56:38.223Z,17.40
2018-04-26T09:59:06.751Z,17.40
2018-04-26T10:01:36.081Z,17.50
2018-04-26T10:04:09.939Z,17.40
2018-04-26T10:06:43.856Z,17.40
2018-04-26T10:09:12.357Z,17.50
2018-04-26T10:11:40.871Z,17.60
2018-04-26T10:14:09.411Z,17.40
2018-04-26T10:16:38.672Z,17.00
2018-04-26T10:19:07.134Z,17.00
2018-04-26T10:21:35.855Z,17.00
2018-04-26T10:24:04.594Z,16.80
2018-04-26T10:26:34.394Z,16.40
2018-04-26T10:29:04.242Z,16.20
2018-04-26T10:31:33.060Z,16.20
2018-04-26T10:34:01.891Z,16.20
2018-04-26T10:36:31.736Z,16.10
2018-04-26T10:39:00.560Z,16.10
2018-04-26T10:41:29.082Z,16.10
2018-04-26T10:43:58.214Z,16.00
2018-04-26T10:46:26.727Z,16.00
2018-04-26T10:48:55.983Z,15.90
2018-04-26T10:51:24.764Z,15.80
2018-04-26T10:53:53.575Z,15.60
2018-04-26T10:56:22.942Z,15.70
2018-04-26T10:58:52.155Z,15.80
2018-04-26T11:01:21.899Z,15.80
2018-04-26T11:03:50.829Z,15.80
2018-04-26T11:06:20.659Z,15.80
2018-04-26T11:08:50.164Z,15.70
2018-04-26T11:11:19.371Z,15.70
2018-04-26T11:13:48.285Z,15.70
2018-04-26T11:16:17.134Z,15.70
2018-04-26T11:18:45.924Z,15.70
2018-04-26T11:21:15.720Z,15.60
2018-04-26T11:23:45.488Z,15.40
2018-04-26T11:26:14.353Z,15.40
2018-04-26T11:28:44.288Z,15.10
2018-04-26T11:31:12.993Z,15.10
2018-04-26T11:33:41.795Z,14.90
2018-04-26T11:36:10.721Z,14.80
2018-04-26T11:38:39.546Z,14.80
2018-04-26T11:41:08.287Z,14.80
2018-04-26T11:43:37.094Z,14.70
2018-04-26T11:46:05.918Z,14.70
2018-04-26T11:48:34.754Z,14.70
2018-04-26T11:51:03.571Z,14.70
2018-04-26T11:53:32.687Z,14.50
2018-04-26T11:56:01.486Z,14.40
2018-04-26T11:58:30.252Z,14.30
2018-04-26T12:00:59.898Z,14.00
2018-04-26T12:03:28.717Z,14.00
2018-04-26T12:05:58.069Z,13.80
2018-04-26T12:08:26.558Z,13.60
2018-04-26T12:10:55.091Z,13.50
2018-04-26T12:13:23.630Z,13.30
2018-04-26T12:15:52.888Z,13.20
2018-04-26T12:18:21.368Z,13.20
2018-04-26T12:20:50.076Z,13.20
2018-04-26T12:23:19.603Z,13.10
2018-04-26T12:25:48.330Z,13.10
2018-04-26T12:28:17.085Z,13.00
2018-04-26T12:30:45.603Z,12.90
2018-04-26T12:33:14.301Z,12.90
2018-04-26T12:35:42.759Z,12.90
2018-04-26T12:38:11.338Z,12.80
2018-04-26T12:40:40.128Z,12.80
2018-04-26T12:43:08.850Z,12.80
2018-04-26T12:45:37.797Z,12.80
2018-04-26T12:48:06.621Z,12.60
2018-04-26T12:50:35.148Z,12.70
2018-04-26T12:53:04.621Z,12.60
2018-04-26T12:55:33.077Z,12.60
2018-04-26T12:58:01.565Z,12.70
2018-04-26T13:00:30.100Z,12.60
2018-04-26T13:02:59.242Z,12.50
2018-04-26T13:05:27.687Z,12.50
2018-04-26T13:07:56.259Z,12.30
2018-04-26T13:10:24.881Z,12.30
2018-04-26T13:12:53.879Z,12.30
2018-04-26T13:15:22.734Z,12.10
2018-04-26T13:17:52.576Z,11.80
2018-04-26T13:20:21.395Z,11.80
2018-04-26T13:22:51.041Z,11.70
2018-04-26T13:25:20.368Z,11.40
2018-04-26T13:27:48.848Z,11.40
2018-04-26T13:30:17.344Z,11.40
2018-04-26T13:32:45.876Z,11.50
2018-04-26T13:35:15.177Z,11.50
2018-04-26T13:37:43.657Z,11.50
2018-04-26T13:40:12.186Z,11.40
2018-04-26T13:42:40.910Z,11.30
2018-04-26T13:45:09.387Z,11.30
2018-04-26T13:47:38.524Z,11.30
2018-04-26T13:50:07.772Z,11.00
2018-04-26T13:52:37.251Z,10.80
2018-04-26T13:55:05.905Z,10.80
2018-04-26T13:57:34.907Z,10.60
2018-04-26T14:00:03.696Z,10.50
2018-04-26T14:02:33.664Z,10.40
2018-04-26T14:05:03.426Z,10.10
2018-04-26T14:07:32.996Z,10.10
2018-04-26T14:10:02.533Z,9.90
2018-04-26T14:12:31.249Z,9.90
2018-04-26T14:15:00.728Z,9.90
2018-04-26T14:17:29.859Z,9.80
2018-04-26T14:19:59.400Z,9.70
2018-04-26T14:22:29.319Z,9.60
2018-04-26T14:24:59.138Z,9.50
2018-04-26T14:27:28.151Z,9.40
2018-04-26T14:29:56.919Z,9.50
2018-04-26T14:32:25.388Z,9.40
2018-04-26T14:34:54.884Z,9.30
2018-04-26T14:37:24.556Z,9.20
2018-04-26T14:39:53.362Z,9.20
2018-04-26T14:42:22.869Z,9.10
2018-04-26T14:44:51.933Z,9.10
2018-04-26T14:47:20.771Z,9.10
2018-04-26T14:49:49.687Z,9.00
2018-04-26T14:52:19.378Z,9.10
2018-04-26T14:54:49.996Z,8.90
2018-04-26T14:57:19.609Z,8.90
2018-04-26T14:59:48.779Z,8.90
2018-04-26T15:02:17.763Z,8.90
2018-04-26T15:04:46.527Z,9.00
2018-04-26T15:07:15.278Z,9.00
2018-04-26T15:09:44.039Z,8.90
2018-04-26T15:12:12.754Z,8.90
2018-04-26T15:14:42.531Z,8.80
2018-04-26T15:17:11.247Z,8.80
2018-04-26T15:19:40.286Z,8.80
2018-04-26T15:22:09.350Z,8.80
2018-04-26T15:24:38.155Z,8.70
2018-04-26T15:27:06.924Z,8.70
2018-04-26T15:29:35.821Z,8.70
2018-04-26T15:32:04.555Z,8.60
2018-04-26T15:34:34.056Z,8.60
2018-04-26T15:37:03.180Z,8.60
2018-04-26T15:39:33.119Z,8.50
2018-04-26T15:42:01.985Z,8.50
2018-04-26T15:44:30.828Z,8.40
2018-04-26T15:46:59.656Z,8.50
2018-04-26T15:49:28.412Z,8.50
2018-04-26T15:51:58.246Z,8.50
2018-04-26T15:54:36.095Z,8.50
2018-04-26T15:57:06.979Z,8.50
2018-04-26T15:59:46.922Z,8.50
2018-04-26T16:02:33.103Z,8.60
2018-04-26T16:05:18.607Z,8.60
2018-04-26T16:08:04.980Z,8.50
2018-04-26T16:10:51.018Z,8.50
2018-04-26T16:13:37.064Z,8.50
2018-04-26T16:16:34.475Z,8.50
2018-04-26T16:19:20.568Z,8.60
2018-04-26T16:22:06.353Z,8.60
2018-04-26T16:24:51.677Z,8.60
2018-04-26T16:27:37.437Z,8.60
2018-04-26T16:30:17.531Z,8.50
2018-04-26T16:33:03.435Z,8.40
2018-04-26T16:35:44.169Z,8.30
2018-04-26T16:38:24.438Z,8.30
2018-04-26T16:40:54.198Z,8.30
2018-04-26T16:43:23.304Z,8.30
2018-04-26T16:45:53.171Z,8.40
2018-04-26T16:48:22.015Z,8.40
2018-04-26T16:50:50.913Z,8.30
2018-04-26T16:53:20.392Z,8.20
2018-04-26T16:55:49.469Z,8.20
2018-04-26T16:58:18.406Z,8.30
2018-04-26T17:00:47.189Z,8.30
2018-04-26T17:03:16.778Z,8.30
2018-04-26T17:05:45.799Z,8.40
2018-04-26T17:08:14.672Z,8.30
2018-04-26T17:10:52.322Z,8.40
2018-04-26T17:13:21.358Z,8.30
2018-04-26T17:15:50.294Z,8.30
2018-04-26T17:18:19.084Z,8.30
2018-04-26T17:20:47.905Z,8.20
2018-04-26T17:23:16.785Z,8.20
2018-04-26T17:25:46.314Z,8.20
2018-04-26T17:28:16.419Z,8.30
2018-04-26T17:30:45.977Z,8.30
2018-04-26T17:33:15.693Z,8.30
2018-04-26T17:35:45.676Z,8.40
2018-04-26T17:38:14.791Z,8.40
2018-04-26T17:40:44.326Z,8.40
2018-04-26T17:43:13.358Z,8.40
2018-04-26T17:45:42.341Z,8.40
2018-04-26T17:48:12.135Z,8.40
2018-04-26T17:50:41.872Z,8.40
2018-04-26T17:53:10.858Z,8.50
2018-04-26T17:55:40.326Z,8.50
2018-04-26T17:58:09.496Z,8.50
2018-04-26T18:00:38.975Z,8.40
2018-04-26T18:03:08.815Z,8.40
2018-04-26T18:05:39.326Z,8.50
2018-04-26T18:08:08.525Z,8.40
2018-04-26T18:10:37.603Z,8.40
2018-04-26T18:13:06.436Z,8.40
2018-04-26T18:15:35.945Z,8.40
2018-04-26T18:18:05.028Z,8.50
2018-04-26T18:20:33.833Z,8.50
2018-04-26T18:23:03.648Z,8.40
2018-04-26T18:25:32.630Z,8.40
2018-04-26T18:28:01.461Z,8.40
2018-04-26T18:30:30.986Z,8.40
2018-04-26T18:33:00.085Z,8.50
2018-04-26T18:35:29.676Z,8.50
2018-04-26T18:37:59.290Z,8.50
2018-04-26T18:40:28.869Z,8.60
2018-04-26T18:42:58.159Z,8.60
2018-04-26T18:45:28.082Z,8.60
2018-04-26T18:47:57.104Z,8.50
2018-04-26T18:50:27.168Z,8.60
2018-04-26T18:52:55.798Z,8.50
2018-04-26T18:55:24.602Z,8.50
2018-04-26T18:57:53.434Z,8.50
2018-04-26T19:00:22.239Z,8.50
2018-04-26T19:02:51.235Z,8.50
2018-04-26T19:05:20.691Z,8.50
2018-04-26T19:07:49.718Z,8.60
2018-04-26T19:10:18.561Z,8.50
2018-04-26T19:12:48.137Z,8.50
2018-04-26T19:15:17.966Z,8.60
2018-04-26T19:17:46.770Z,8.60
2018-04-26T19:20:15.790Z,8.60
2018-04-26T19:22:44.725Z,8.60
2018-04-26T19:25:14.520Z,8.50
2018-04-26T19:27:43.478Z,8.50
2018-04-26T19:30:13.984Z,8.50
2018-04-26T19:32:43.019Z,8.40
2018-04-26T19:35:11.929Z,8.40
2018-04-26T19:37:40.759Z,8.40
2018-04-26T19:40:09.649Z,8.40
2018-04-26T19:42:38.409Z,8.30
2018-04-26T19:45:07.257Z,8.30
2018-04-26T19:47:36.823Z,8.40
2018-04-26T19:50:06.970Z,8.40
2018-04-26T19:52:36.531Z,8.40
2018-04-26T19:55:05.635Z,8.40
2018-04-26T19:57:34.523Z,8.40
2018-04-26T20:00:03.919Z,8.40
2018-04-26T20:02:32.967Z,8.30
2018-04-26T20:05:02.678Z,8.40
2018-04-26T20:07:31.587Z,8.40
2018-04-26T20:10:01.329Z,8.50
2018-04-26T20:12:30.361Z,8.40
2018-04-26T20:14:59.348Z,8.50
2018-04-26T20:17:29.138Z,8.50
2018-04-26T20:19:57.920Z,8.50
2018-04-26T20:22:26.871Z,8.50
2018-04-26T20:24:55.660Z,8.50
2018-04-26T20:27:24.491Z,8.50
2018-04-26T20:29:53.480Z,8.50
2018-04-26T20:32:22.862Z,8.60
2018-04-26T20:34:52.615Z,8.70
2018-04-26T20:37:21.636Z,8.60
2018-04-26T20:39:50.615Z,8.60
2018-04-26T20:42:19.466Z,8.60
2018-04-26T20:44:48.283Z,8.60
2018-04-26T20:47:17.167Z,8.60
2018-04-26T20:49:46.624Z,8.60
2018-04-26T20:52:19.528Z,8.60
2018-04-26T20:54:48.585Z,8.60
2018-04-26T20:57:21.976Z,8.60
2018-04-26T20:59:51.214Z,8.60
2018-04-26T21:02:20.988Z,8.50
2018-04-26T21:04:50.805Z,8.60
2018-04-26T21:07:20.719Z,8.50
2018-04-26T21:09:53.581Z,8.50
2018-04-26T21:12:23.498Z,8.50
2018-04-26T21:14:53.959Z,8.50
2018-04-26T21:17:26.294Z,8.50
2018-04-26T21:19:54.893Z,8.50
2018-04-26T21:22:23.722Z,8.60
2018-04-26T21:24:53.406Z,8.60
2018-04-26T21:27:22.172Z,8.60
2018-04-26T21:29:51.156Z,8.60
2018-04-26T21:32:20.124Z,8.60
2018-04-26T21:34:49.503Z,8.60
2018-04-26T21:37:19.211Z,8.60
2018-04-26T21:39:49.331Z,8.80
2018-04-26T21:42:19.390Z,8.80
2018-04-26T21:44:49.121Z,8.80
2018-04-26T21:47:18.658Z,8.80
2018-04-26T21:49:53.820Z,8.80
2018-04-26T21:52:28.444Z,8.80
2018-04-26T21:55:02.604Z,8.90
2018-04-26T21:57:37.228Z,8.90
2018-04-26T22:00:11.936Z,8.90
